sensor_id;sensor_type;location;lat;lon;timestamp;P1;durP1;ratioP1;P2;durP2;ratioP2
39524;SDS011;25203;50.754;6.978;2023-10-08T00:00:17;6.68;;;4.68;;
39524;SDS011;25203;50.754;6.978;2023-10-08T00:02:36;9.07;;;4.55;;
39524;SDS011;25203;50.754;6.978;2023-10-08T00:04:37;7.78;;;3.92;;
39524;SDS011;25203;50.754;6.978;2023-10-08T00:06:37;7.32;;;4.03;;
39524;SDS011;25203;50.754;6.978;2023-10-08T00:08:39;7.30;;;4.20;;
39524;SDS011;25203;50.754;6.978;2023-10-08T00:10:39;6.45;;;3.88;;
39524;SDS011;25203;50.754;6.978;2023-10-08T00:12:41;11.25;;;4.60;;
39524;SDS011;25203;50.754;6.978;2023-10-08T00:14:41;8.68;;;4.00;;
39524;SDS011;25203;50.754;6.978;2023-10-08T00:16:49;7.73;;;4.27;;
39524;SDS011;25203;50.754;6.978;2023-10-08T00:18:50;9.38;;;4.53;;
39524;SDS011;25203;50.754;6.978;2023-10-08T00:20:51;6.70;;;3.72;;
39524;SDS011;25203;50.754;6.978;2023-10-08T00:22:57;8.10;;;3.92;;
39524;SDS011;25203;50.754;6.978;2023-10-08T00:24:58;10.05;;;3.92;;
39524;SDS011;25203;50.754;6.978;2023-10-08T00:26:59;6.05;;;3.90;;
39524;SDS011;25203;50.754;6.978;2023-10-08T00:29:07;7.75;;;3.95;;
39524;SDS011;25203;50.754;6.978;2023-10-08T00:31:21;8.20;;;4.88;;
39524;SDS011;25203;50.754;6.978;2023-10-08T00:33:26;9.18;;;4.28;;
39524;SDS011;25203;50.754;6.978;2023-10-08T00:35:26;10.80;;;4.30;;
39524;SDS011;25203;50.754;6.978;2023-10-08T00:37:27;10.18;;;4.85;;
39524;SDS011;25203;50.754;6.978;2023-10-08T00:39:29;7.15;;;4.22;;
39524;SDS011;25203;50.754;6.978;2023-10-08T00:41:34;7.03;;;4.53;;
39524;SDS011;25203;50.754;6.978;2023-10-08T00:43:35;8.98;;;4.15;;
39524;SDS011;25203;50.754;6.978;2023-10-08T00:45:39;7.47;;;4.65;;
39524;SDS011;25203;50.754;6.978;2023-10-08T00:47:43;8.48;;;4.05;;
39524;SDS011;25203;50.754;6.978;2023-10-08T00:49:45;10.18;;;4.65;;
39524;SDS011;25203;50.754;6.978;2023-10-08T00:51:45;8.90;;;4.28;;
39524;SDS011;25203;50.754;6.978;2023-10-08T00:54:03;10.38;;;4.43;;
39524;SDS011;25203;50.754;6.978;2023-10-08T00:56:06;9.63;;;4.55;;
39524;SDS011;25203;50.754;6.978;2023-10-08T00:58:19;8.05;;;4.75;;
39524;SDS011;25203;50.754;6.978;2023-10-08T01:00:25;7.78;;;4.55;;
39524;SDS011;25203;50.754;6.978;2023-10-08T01:02:33;8.65;;;4.30;;
39524;SDS011;25203;50.754;6.978;2023-10-08T01:04:57;7.85;;;4.38;;
39524;SDS011;25203;50.754;6.978;2023-10-08T01:06:57;8.95;;;4.32;;
39524;SDS011;25203;50.754;6.978;2023-10-08T01:09:01;11.13;;;4.60;;
39524;SDS011;25203;50.754;6.978;2023-10-08T01:11:18;8.55;;;4.28;;
39524;SDS011;25203;50.754;6.978;2023-10-08T01:13:21;8.80;;;4.72;;
39524;SDS011;25203;50.754;6.978;2023-10-08T01:15:22;9.00;;;4.43;;
39524;SDS011;25203;50.754;6.978;2023-10-08T01:17:24;10.95;;;4.25;;
39524;SDS011;25203;50.754;6.978;2023-10-08T01:19:26;12.07;;;4.35;;
39524;SDS011;25203;50.754;6.978;2023-10-08T01:21:28;12.30;;;4.05;;
39524;SDS011;25203;50.754;6.978;2023-10-08T01:23:39;6.60;;;4.00;;
39524;SDS011;25203;50.754;6.978;2023-10-08T01:25:40;7.53;;;3.97;;
39524;SDS011;25203;50.754;6.978;2023-10-08T01:27:42;11.00;;;4.60;;
39524;SDS011;25203;50.754;6.978;2023-10-08T01:29:42;8.95;;;4.45;;
39524;SDS011;25203;50.754;6.978;2023-10-08T01:31:45;8.13;;;4.03;;
39524;SDS011;25203;50.754;6.978;2023-10-08T01:33:46;12.02;;;4.80;;
39524;SDS011;25203;50.754;6.978;2023-10-08T01:35:50;9.27;;;3.83;;
39524;SDS011;25203;50.754;6.978;2023-10-08T01:37:50;11.25;;;5.05;;
39524;SDS011;25203;50.754;6.978;2023-10-08T01:39:52;10.05;;;4.28;;
39524;SDS011;25203;50.754;6.978;2023-10-08T01:41:53;10.32;;;4.45;;
39524;SDS011;25203;50.754;6.978;2023-10-08T01:43:53;12.23;;;4.60;;
39524;SDS011;25203;50.754;6.978;2023-10-08T01:45:54;8.00;;;4.20;;
39524;SDS011;25203;50.754;6.978;2023-10-08T01:47:54;9.43;;;4.18;;
39524;SDS011;25203;50.754;6.978;2023-10-08T01:49:55;8.90;;;3.90;;
39524;SDS011;25203;50.754;6.978;2023-10-08T01:52:05;7.53;;;4.28;;
39524;SDS011;25203;50.754;6.978;2023-10-08T01:54:17;7.97;;;4.10;;
39524;SDS011;25203;50.754;6.978;2023-10-08T01:56:21;8.65;;;4.50;;
39524;SDS011;25203;50.754;6.978;2023-10-08T01:58:21;10.10;;;4.50;;
39524;SDS011;25203;50.754;6.978;2023-10-08T02:00:25;8.57;;;4.63;;
39524;SDS011;25203;50.754;6.978;2023-10-08T02:02:26;7.53;;;3.75;;
39524;SDS011;25203;50.754;6.978;2023-10-08T02:04:27;7.70;;;3.78;;
39524;SDS011;25203;50.754;6.978;2023-10-08T02:06:27;8.02;;;4.75;;
39524;SDS011;25203;50.754;6.978;2023-10-08T02:08:30;7.78;;;4.15;;
39524;SDS011;25203;50.754;6.978;2023-10-08T02:10:31;6.15;;;4.03;;
39524;SDS011;25203;50.754;6.978;2023-10-08T02:12:33;12.32;;;4.05;;
39524;SDS011;25203;50.754;6.978;2023-10-08T02:14:35;7.40;;;4.40;;
39524;SDS011;25203;50.754;6.978;2023-10-08T02:16:35;7.03;;;4.05;;
39524;SDS011;25203;50.754;6.978;2023-10-08T02:18:37;8.32;;;3.83;;
39524;SDS011;25203;50.754;6.978;2023-10-08T02:20:38;10.02;;;4.07;;
39524;SDS011;25203;50.754;6.978;2023-10-08T02:22:39;7.70;;;4.43;;
39524;SDS011;25203;50.754;6.978;2023-10-08T02:24:40;8.20;;;3.92;;
39524;SDS011;25203;50.754;6.978;2023-10-08T02:26:43;6.88;;;3.55;;
39524;SDS011;25203;50.754;6.978;2023-10-08T02:28:43;8.80;;;4.13;;
39524;SDS011;25203;50.754;6.978;2023-10-08T02:30:44;9.40;;;4.57;;
39524;SDS011;25203;50.754;6.978;2023-10-08T02:32:44;7.40;;;4.10;;
39524;SDS011;25203;50.754;6.978;2023-10-08T02:34:46;8.30;;;4.55;;
39524;SDS011;25203;50.754;6.978;2023-10-08T02:36:47;7.65;;;4.22;;
39524;SDS011;25203;50.754;6.978;2023-10-08T02:38:47;11.95;;;4.40;;
39524;SDS011;25203;50.754;6.978;2023-10-08T02:40:49;9.90;;;4.70;;
39524;SDS011;25203;50.754;6.978;2023-10-08T02:42:54;9.15;;;4.22;;
39524;SDS011;25203;50.754;6.978;2023-10-08T02:45:00;6.40;;;3.92;;
39524;SDS011;25203;50.754;6.978;2023-10-08T02:47:02;8.90;;;5.00;;
39524;SDS011;25203;50.754;6.978;2023-10-08T02:49:04;9.77;;;4.22;;
39524;SDS011;25203;50.754;6.978;2023-10-08T02:51:06;12.10;;;5.43;;
39524;SDS011;25203;50.754;6.978;2023-10-08T02:53:13;11.93;;;4.70;;
39524;SDS011;25203;50.754;6.978;2023-10-08T02:55:25;12.50;;;4.15;;
39524;SDS011;25203;50.754;6.978;2023-10-08T02:57:34;6.82;;;4.30;;
39524;SDS011;25203;50.754;6.978;2023-10-08T02:59:35;8.73;;;4.80;;
39524;SDS011;25203;50.754;6.978;2023-10-08T03:01:44;7.90;;;3.78;;
39524;SDS011;25203;50.754;6.978;2023-10-08T03:03:45;9.40;;;4.82;;
39524;SDS011;25203;50.754;6.978;2023-10-08T03:05:49;10.73;;;4.55;;
39524;SDS011;25203;50.754;6.978;2023-10-08T03:07:51;7.78;;;3.85;;
39524;SDS011;25203;50.754;6.978;2023-10-08T03:09:51;12.73;;;4.22;;
39524;SDS011;25203;50.754;6.978;2023-10-08T03:12:03;12.77;;;4.57;;
39524;SDS011;25203;50.754;6.978;2023-10-08T03:14:09;8.45;;;4.60;;
39524;SDS011;25203;50.754;6.978;2023-10-08T03:16:15;10.77;;;4.47;;
39524;SDS011;25203;50.754;6.978;2023-10-08T03:18:15;7.07;;;4.05;;
39524;SDS011;25203;50.754;6.978;2023-10-08T03:20:16;10.27;;;4.22;;
39524;SDS011;25203;50.754;6.978;2023-10-08T03:22:36;10.90;;;4.18;;
39524;SDS011;25203;50.754;6.978;2023-10-08T03:24:37;9.10;;;4.38;;
39524;SDS011;25203;50.754;6.978;2023-10-08T03:26:38;12.18;;;4.68;;
39524;SDS011;25203;50.754;6.978;2023-10-08T03:28:40;8.27;;;4.25;;
39524;SDS011;25203;50.754;6.978;2023-10-08T03:30:41;8.10;;;4.60;;
39524;SDS011;25203;50.754;6.978;2023-10-08T03:32:49;9.43;;;4.30;;
39524;SDS011;25203;50.754;6.978;2023-10-08T03:34:55;7.53;;;4.55;;
39524;SDS011;25203;50.754;6.978;2023-10-08T03:36:56;9.35;;;4.32;;
39524;SDS011;25203;50.754;6.978;2023-10-08T03:39:05;9.43;;;4.00;;
39524;SDS011;25203;50.754;6.978;2023-10-08T03:41:11;10.75;;;4.63;;
39524;SDS011;25203;50.754;6.978;2023-10-08T03:43:16;10.27;;;4.80;;
39524;SDS011;25203;50.754;6.978;2023-10-08T03:45:23;11.82;;;4.40;;
39524;SDS011;25203;50.754;6.978;2023-10-08T03:47:43;7.07;;;4.40;;
39524;SDS011;25203;50.754;6.978;2023-10-08T03:49:46;10.65;;;4.80;;
39524;SDS011;25203;50.754;6.978;2023-10-08T03:51:50;10.65;;;4.63;;
39524;SDS011;25203;50.754;6.978;2023-10-08T03:53:52;8.27;;;4.00;;
39524;SDS011;25203;50.754;6.978;2023-10-08T03:56:06;7.93;;;4.70;;
39524;SDS011;25203;50.754;6.978;2023-10-08T03:58:07;9.10;;;4.82;;
39524;SDS011;25203;50.754;6.978;2023-10-08T04:00:24;7.40;;;4.60;;
39524;SDS011;25203;50.754;6.978;2023-10-08T04:02:31;12.38;;;4.68;;
39524;SDS011;25203;50.754;6.978;2023-10-08T04:04:55;9.15;;;4.20;;
39524;SDS011;25203;50.754;6.978;2023-10-08T04:06:59;10.38;;;4.15;;
39524;SDS011;25203;50.754;6.978;2023-10-08T04:09:19;8.50;;;4.32;;
39524;SDS011;25203;50.754;6.978;2023-10-08T04:11:20;8.85;;;4.30;;
39524;SDS011;25203;50.754;6.978;2023-10-08T04:13:36;9.55;;;4.60;;
39524;SDS011;25203;50.754;6.978;2023-10-08T04:15:44;8.55;;;4.90;;
39524;SDS011;25203;50.754;6.978;2023-10-08T04:17:45;8.70;;;4.50;;
39524;SDS011;25203;50.754;6.978;2023-10-08T04:19:50;10.35;;;5.00;;
39524;SDS011;25203;50.754;6.978;2023-10-08T04:21:51;11.68;;;4.63;;
39524;SDS011;25203;50.754;6.978;2023-10-08T04:23:55;11.35;;;5.20;;
39524;SDS011;25203;50.754;6.978;2023-10-08T04:25:57;11.13;;;4.38;;
39524;SDS011;25203;50.754;6.978;2023-10-08T04:27:59;8.07;;;4.82;;
39524;SDS011;25203;50.754;6.978;2023-10-08T04:30:00;8.80;;;4.45;;
39524;SDS011;25203;50.754;6.978;2023-10-08T04:32:01;8.20;;;4.22;;
39524;SDS011;25203;50.754;6.978;2023-10-08T04:34:07;8.63;;;4.20;;
39524;SDS011;25203;50.754;6.978;2023-10-08T04:36:17;6.70;;;4.15;;
39524;SDS011;25203;50.754;6.978;2023-10-08T04:38:24;9.93;;;4.53;;
39524;SDS011;25203;50.754;6.978;2023-10-08T04:40:26;7.43;;;4.30;;
39524;SDS011;25203;50.754;6.978;2023-10-08T04:42:26;9.93;;;4.15;;
39524;SDS011;25203;50.754;6.978;2023-10-08T04:44:27;11.35;;;5.00;;
39524;SDS011;25203;50.754;6.978;2023-10-08T04:46:32;10.82;;;4.55;;
39524;SDS011;25203;50.754;6.978;2023-10-08T04:48:38;9.18;;;4.95;;
39524;SDS011;25203;50.754;6.978;2023-10-08T04:50:38;7.35;;;4.72;;
39524;SDS011;25203;50.754;6.978;2023-10-08T04:52:44;7.00;;;3.97;;
39524;SDS011;25203;50.754;6.978;2023-10-08T04:54:58;7.15;;;4.50;;
39524;SDS011;25203;50.754;6.978;2023-10-08T04:57:07;8.70;;;4.32;;
39524;SDS011;25203;50.754;6.978;2023-10-08T04:59:15;7.75;;;4.20;;
39524;SDS011;25203;50.754;6.978;2023-10-08T05:01:21;5.93;;;3.83;;
39524;SDS011;25203;50.754;6.978;2023-10-08T05:03:28;7.25;;;4.13;;
39524;SDS011;25203;50.754;6.978;2023-10-08T05:05:43;10.48;;;4.30;;
39524;SDS011;25203;50.754;6.978;2023-10-08T05:08:02;7.40;;;4.65;;
39524;SDS011;25203;50.754;6.978;2023-10-08T05:10:17;13.18;;;4.93;;
39524;SDS011;25203;50.754;6.978;2023-10-08T05:12:24;8.57;;;4.38;;
39524;SDS011;25203;50.754;6.978;2023-10-08T05:14:43;7.60;;;4.57;;
39524;SDS011;25203;50.754;6.978;2023-10-08T05:16:56;11.00;;;4.50;;
39524;SDS011;25203;50.754;6.978;2023-10-08T05:19:17;6.72;;;4.43;;
39524;SDS011;25203;50.754;6.978;2023-10-08T05:21:37;12.82;;;4.88;;
39524;SDS011;25203;50.754;6.978;2023-10-08T05:23:51;10.90;;;5.15;;
39524;SDS011;25203;50.754;6.978;2023-10-08T05:26:08;9.20;;;4.93;;
39524;SDS011;25203;50.754;6.978;2023-10-08T05:28:20;8.50;;;4.63;;
39524;SDS011;25203;50.754;6.978;2023-10-08T05:30:25;8.70;;;5.25;;
39524;SDS011;25203;50.754;6.978;2023-10-08T05:32:44;7.82;;;4.80;;
39524;SDS011;25203;50.754;6.978;2023-10-08T05:35:04;12.65;;;5.05;;
39524;SDS011;25203;50.754;6.978;2023-10-08T05:37:23;13.05;;;5.13;;
39524;SDS011;25203;50.754;6.978;2023-10-08T05:39:41;9.63;;;5.00;;
39524;SDS011;25203;50.754;6.978;2023-10-08T05:41:54;12.20;;;5.03;;
39524;SDS011;25203;50.754;6.978;2023-10-08T05:44:13;13.07;;;4.75;;
39524;SDS011;25203;50.754;6.978;2023-10-08T05:46:19;11.02;;;5.40;;
39524;SDS011;25203;50.754;6.978;2023-10-08T05:48:23;10.68;;;5.18;;
39524;SDS011;25203;50.754;6.978;2023-10-08T05:50:27;9.23;;;4.60;;
39524;SDS011;25203;50.754;6.978;2023-10-08T05:52:28;8.55;;;5.15;;
39524;SDS011;25203;50.754;6.978;2023-10-08T05:54:42;8.82;;;4.80;;
39524;SDS011;25203;50.754;6.978;2023-10-08T05:57:05;10.80;;;5.07;;
39524;SDS011;25203;50.754;6.978;2023-10-08T05:59:24;10.43;;;5.75;;
39524;SDS011;25203;50.754;6.978;2023-10-08T06:01:31;10.82;;;5.00;;
39524;SDS011;25203;50.754;6.978;2023-10-08T06:03:40;8.93;;;4.57;;
39524;SDS011;25203;50.754;6.978;2023-10-08T06:06:00;10.35;;;4.90;;
39524;SDS011;25203;50.754;6.978;2023-10-08T06:08:22;10.13;;;4.90;;
39524;SDS011;25203;50.754;6.978;2023-10-08T06:10:43;8.27;;;4.90;;
39524;SDS011;25203;50.754;6.978;2023-10-08T06:12:46;12.07;;;4.97;;
39524;SDS011;25203;50.754;6.978;2023-10-08T06:15:00;8.15;;;4.38;;
39524;SDS011;25203;50.754;6.978;2023-10-08T06:17:12;7.80;;;4.53;;
39524;SDS011;25203;50.754;6.978;2023-10-08T06:19:34;11.40;;;4.90;;
39524;SDS011;25203;50.754;6.978;2023-10-08T06:21:35;10.88;;;5.03;;
39524;SDS011;25203;50.754;6.978;2023-10-08T06:23:40;9.82;;;4.60;;
39524;SDS011;25203;50.754;6.978;2023-10-08T06:25:42;18.17;;;5.15;;
39524;SDS011;25203;50.754;6.978;2023-10-08T06:27:45;11.50;;;4.70;;
39524;SDS011;25203;50.754;6.978;2023-10-08T06:29:46;9.75;;;4.90;;
39524;SDS011;25203;50.754;6.978;2023-10-08T06:31:46;9.18;;;5.13;;
39524;SDS011;25203;50.754;6.978;2023-10-08T06:33:51;11.63;;;5.30;;
39524;SDS011;25203;50.754;6.978;2023-10-08T06:35:52;10.23;;;5.10;;
39524;SDS011;25203;50.754;6.978;2023-10-08T06:38:02;6.85;;;4.07;;
39524;SDS011;25203;50.754;6.978;2023-10-08T06:40:10;10.67;;;5.43;;
39524;SDS011;25203;50.754;6.978;2023-10-08T06:42:34;8.30;;;4.95;;
39524;SDS011;25203;50.754;6.978;2023-10-08T06:44:35;9.35;;;4.93;;
39524;SDS011;25203;50.754;6.978;2023-10-08T06:46:37;7.75;;;4.80;;
39524;SDS011;25203;50.754;6.978;2023-10-08T06:48:40;9.98;;;5.10;;
39524;SDS011;25203;50.754;6.978;2023-10-08T06:50:48;7.65;;;4.55;;
39524;SDS011;25203;50.754;6.978;2023-10-08T06:52:50;9.70;;;4.95;;
39524;SDS011;25203;50.754;6.978;2023-10-08T06:54:50;10.35;;;4.85;;
39524;SDS011;25203;50.754;6.978;2023-10-08T06:56:53;9.50;;;4.95;;
39524;SDS011;25203;50.754;6.978;2023-10-08T06:58:53;8.13;;;4.68;;
39524;SDS011;25203;50.754;6.978;2023-10-08T07:00:54;13.85;;;5.25;;
39524;SDS011;25203;50.754;6.978;2023-10-08T07:02:55;9.25;;;4.65;;
39524;SDS011;25203;50.754;6.978;2023-10-08T07:04:56;12.57;;;5.47;;
39524;SDS011;25203;50.754;6.978;2023-10-08T07:06:56;10.15;;;4.60;;
39524;SDS011;25203;50.754;6.978;2023-10-08T07:08:58;10.30;;;5.25;;
39524;SDS011;25203;50.754;6.978;2023-10-08T07:11:00;10.27;;;4.88;;
39524;SDS011;25203;50.754;6.978;2023-10-08T07:13:06;10.18;;;5.47;;
39524;SDS011;25203;50.754;6.978;2023-10-08T07:15:08;11.88;;;5.38;;
39524;SDS011;25203;50.754;6.978;2023-10-08T07:17:12;10.05;;;4.65;;
39524;SDS011;25203;50.754;6.978;2023-10-08T07:19:19;9.10;;;5.10;;
39524;SDS011;25203;50.754;6.978;2023-10-08T07:21:23;7.47;;;4.85;;
39524;SDS011;25203;50.754;6.978;2023-10-08T07:23:29;10.95;;;5.55;;
39524;SDS011;25203;50.754;6.978;2023-10-08T07:25:33;9.77;;;4.88;;
39524;SDS011;25203;50.754;6.978;2023-10-08T07:27:37;8.77;;;5.15;;
39524;SDS011;25203;50.754;6.978;2023-10-08T07:29:37;15.93;;;5.65;;
39524;SDS011;25203;50.754;6.978;2023-10-08T07:31:38;10.80;;;5.50;;
39524;SDS011;25203;50.754;6.978;2023-10-08T07:33:46;13.73;;;5.43;;
39524;SDS011;25203;50.754;6.978;2023-10-08T07:35:55;10.90;;;5.30;;
39524;SDS011;25203;50.754;6.978;2023-10-08T07:38:11;10.00;;;4.97;;
39524;SDS011;25203;50.754;6.978;2023-10-08T07:40:15;8.52;;;5.20;;
39524;SDS011;25203;50.754;6.978;2023-10-08T07:42:16;12.45;;;5.22;;
39524;SDS011;25203;50.754;6.978;2023-10-08T07:44:16;8.02;;;5.05;;
39524;SDS011;25203;50.754;6.978;2023-10-08T07:46:23;8.55;;;4.90;;
39524;SDS011;25203;50.754;6.978;2023-10-08T07:48:26;9.05;;;5.13;;
39524;SDS011;25203;50.754;6.978;2023-10-08T07:50:29;11.80;;;5.85;;
39524;SDS011;25203;50.754;6.978;2023-10-08T07:52:30;10.43;;;6.03;;
39524;SDS011;25203;50.754;6.978;2023-10-08T07:54:30;13.50;;;5.70;;
39524;SDS011;25203;50.754;6.978;2023-10-08T07:56:34;9.68;;;5.40;;
39524;SDS011;25203;50.754;6.978;2023-10-08T07:58:35;10.45;;;5.55;;
39524;SDS011;25203;50.754;6.978;2023-10-08T08:00:36;8.88;;;4.95;;
39524;SDS011;25203;50.754;6.978;2023-10-08T08:02:39;11.43;;;5.38;;
39524;SDS011;25203;50.754;6.978;2023-10-08T08:04:42;9.15;;;5.47;;
39524;SDS011;25203;50.754;6.978;2023-10-08T08:06:45;10.18;;;5.30;;
39524;SDS011;25203;50.754;6.978;2023-10-08T08:08:49;7.78;;;5.30;;
39524;SDS011;25203;50.754;6.978;2023-10-08T08:10:51;9.52;;;5.05;;
39524;SDS011;25203;50.754;6.978;2023-10-08T08:12:57;12.00;;;6.25;;
39524;SDS011;25203;50.754;6.978;2023-10-08T08:14:58;9.90;;;5.25;;
39524;SDS011;25203;50.754;6.978;2023-10-08T08:16:59;7.55;;;5.30;;
39524;SDS011;25203;50.754;6.978;2023-10-08T08:19:13;10.32;;;4.57;;
39524;SDS011;25203;50.754;6.978;2023-10-08T08:21:24;12.77;;;5.65;;
39524;SDS011;25203;50.754;6.978;2023-10-08T08:23:25;10.30;;;4.40;;
39524;SDS011;25203;50.754;6.978;2023-10-08T08:25:26;8.98;;;5.28;;
39524;SDS011;25203;50.754;6.978;2023-10-08T08:27:33;9.20;;;4.90;;
39524;SDS011;25203;50.754;6.978;2023-10-08T08:29:35;10.15;;;4.88;;
39524;SDS011;25203;50.754;6.978;2023-10-08T08:31:44;10.43;;;4.57;;
39524;SDS011;25203;50.754;6.978;2023-10-08T08:33:46;6.20;;;3.72;;
39524;SDS011;25203;50.754;6.978;2023-10-08T08:36:01;8.88;;;4.30;;
39524;SDS011;25203;50.754;6.978;2023-10-08T08:38:03;14.90;;;5.03;;
39524;SDS011;25203;50.754;6.978;2023-10-08T08:40:06;9.32;;;4.68;;
39524;SDS011;25203;50.754;6.978;2023-10-08T08:42:17;11.13;;;5.47;;
39524;SDS011;25203;50.754;6.978;2023-10-08T08:44:23;9.27;;;5.43;;
39524;SDS011;25203;50.754;6.978;2023-10-08T08:46:35;10.02;;;5.43;;
39524;SDS011;25203;50.754;6.978;2023-10-08T08:48:37;9.95;;;5.10;;
39524;SDS011;25203;50.754;6.978;2023-10-08T08:50:49;11.43;;;5.55;;
39524;SDS011;25203;50.754;6.978;2023-10-08T08:52:50;8.77;;;4.95;;
39524;SDS011;25203;50.754;6.978;2023-10-08T08:54:51;16.15;;;4.90;;
39524;SDS011;25203;50.754;6.978;2023-10-08T08:56:52;9.60;;;4.93;;
39524;SDS011;25203;50.754;6.978;2023-10-08T08:58:54;11.63;;;4.55;;
39524;SDS011;25203;50.754;6.978;2023-10-08T09:00:57;10.65;;;4.95;;
39524;SDS011;25203;50.754;6.978;2023-10-08T09:02:59;12.23;;;5.22;;
39524;SDS011;25203;50.754;6.978;2023-10-08T09:05:05;8.07;;;4.32;;
39524;SDS011;25203;50.754;6.978;2023-10-08T09:07:24;8.60;;;4.72;;
39524;SDS011;25203;50.754;6.978;2023-10-08T09:09:30;14.13;;;5.18;;
39524;SDS011;25203;50.754;6.978;2023-10-08T09:11:37;8.18;;;5.28;;
39524;SDS011;25203;50.754;6.978;2023-10-08T09:13:41;8.57;;;4.63;;
39524;SDS011;25203;50.754;6.978;2023-10-08T09:15:43;8.38;;;4.60;;
39524;SDS011;25203;50.754;6.978;2023-10-08T09:17:43;12.63;;;4.85;;
39524;SDS011;25203;50.754;6.978;2023-10-08T09:19:44;12.80;;;5.45;;
39524;SDS011;25203;50.754;6.978;2023-10-08T09:22:01;14.43;;;5.10;;
39524;SDS011;25203;50.754;6.978;2023-10-08T09:24:09;10.80;;;4.95;;
39524;SDS011;25203;50.754;6.978;2023-10-08T09:26:11;15.23;;;5.60;;
39524;SDS011;25203;50.754;6.978;2023-10-08T09:28:14;8.90;;;4.60;;
39524;SDS011;25203;50.754;6.978;2023-10-08T09:30:15;16.67;;;5.90;;
39524;SDS011;25203;50.754;6.978;2023-10-08T09:32:19;9.20;;;4.70;;
39524;SDS011;25203;50.754;6.978;2023-10-08T09:34:28;10.48;;;5.63;;
39524;SDS011;25203;50.754;6.978;2023-10-08T09:36:29;11.00;;;5.15;;
39524;SDS011;25203;50.754;6.978;2023-10-08T09:38:31;11.45;;;5.80;;
39524;SDS011;25203;50.754;6.978;2023-10-08T09:40:33;10.77;;;5.55;;
39524;SDS011;25203;50.754;6.978;2023-10-08T09:42:36;14.95;;;6.13;;
39524;SDS011;25203;50.754;6.978;2023-10-08T09:44:39;11.30;;;5.22;;
39524;SDS011;25203;50.754;6.978;2023-10-08T09:46:40;11.88;;;5.43;;
39524;SDS011;25203;50.754;6.978;2023-10-08T09:48:48;11.35;;;5.88;;
39524;SDS011;25203;50.754;6.978;2023-10-08T09:50:53;11.18;;;5.68;;
39524;SDS011;25203;50.754;6.978;2023-10-08T09:54:59;14.75;;;6.15;;
39524;SDS011;25203;50.754;6.978;2023-10-08T09:57:05;15.55;;;6.00;;
39524;SDS011;25203;50.754;6.978;2023-10-08T09:59:06;13.18;;;5.57;;
39524;SDS011;25203;50.754;6.978;2023-10-08T10:01:09;10.80;;;5.22;;
39524;SDS011;25203;50.754;6.978;2023-10-08T10:03:10;10.82;;;5.22;;
39524;SDS011;25203;50.754;6.978;2023-10-08T10:05:12;16.35;;;6.50;;
39524;SDS011;25203;50.754;6.978;2023-10-08T10:07:20;16.38;;;6.93;;
39524;SDS011;25203;50.754;6.978;2023-10-08T10:09:22;20.15;;;5.80;;
39524;SDS011;25203;50.754;6.978;2023-10-08T10:11:30;16.58;;;5.80;;
39524;SDS011;25203;50.754;6.978;2023-10-08T10:13:34;19.10;;;6.80;;
39524;SDS011;25203;50.754;6.978;2023-10-08T10:15:41;15.75;;;6.57;;
39524;SDS011;25203;50.754;6.978;2023-10-08T10:17:42;17.30;;;7.65;;
39524;SDS011;25203;50.754;6.978;2023-10-08T10:19:43;16.95;;;7.28;;
39524;SDS011;25203;50.754;6.978;2023-10-08T10:21:46;20.33;;;7.90;;
39524;SDS011;25203;50.754;6.978;2023-10-08T10:23:50;17.15;;;7.57;;
39524;SDS011;25203;50.754;6.978;2023-10-08T10:25:50;17.85;;;8.13;;
39524;SDS011;25203;50.754;6.978;2023-10-08T10:30:02;14.55;;;7.25;;
39524;SDS011;25203;50.754;6.978;2023-10-08T10:32:11;16.98;;;7.25;;
39524;SDS011;25203;50.754;6.978;2023-10-08T10:34:18;14.55;;;7.80;;
39524;SDS011;25203;50.754;6.978;2023-10-08T10:36:28;16.73;;;7.38;;
39524;SDS011;25203;50.754;6.978;2023-10-08T10:38:31;12.73;;;6.65;;
39524;SDS011;25203;50.754;6.978;2023-10-08T10:40:34;19.58;;;6.97;;
39524;SDS011;25203;50.754;6.978;2023-10-08T10:42:40;15.02;;;7.30;;
39524;SDS011;25203;50.754;6.978;2023-10-08T10:44:47;11.30;;;5.90;;
39524;SDS011;25203;50.754;6.978;2023-10-08T10:46:53;11.63;;;5.47;;
39524;SDS011;25203;50.754;6.978;2023-10-08T10:49:19;17.05;;;7.18;;
39524;SDS011;25203;50.754;6.978;2023-10-08T10:51:36;13.20;;;7.25;;
39524;SDS011;25203;50.754;6.978;2023-10-08T10:53:41;13.10;;;6.97;;
39524;SDS011;25203;50.754;6.978;2023-10-08T10:55:58;16.98;;;7.05;;
39524;SDS011;25203;50.754;6.978;2023-10-08T10:58:11;23.48;;;7.40;;
39524;SDS011;25203;50.754;6.978;2023-10-08T11:00:12;14.15;;;8.15;;
39524;SDS011;25203;50.754;6.978;2023-10-08T11:04:43;15.85;;;8.40;;
39524;SDS011;25203;50.754;6.978;2023-10-08T11:06:50;17.63;;;7.70;;
39524;SDS011;25203;50.754;6.978;2023-10-08T11:08:51;17.60;;;8.07;;
39524;SDS011;25203;50.754;6.978;2023-10-08T11:10:53;18.80;;;8.95;;
39524;SDS011;25203;50.754;6.978;2023-10-08T11:12:58;14.45;;;8.15;;
39524;SDS011;25203;50.754;6.978;2023-10-08T11:15:01;15.52;;;8.23;;
39524;SDS011;25203;50.754;6.978;2023-10-08T11:17:15;16.77;;;8.73;;
39524;SDS011;25203;50.754;6.978;2023-10-08T11:19:19;13.40;;;8.15;;
39524;SDS011;25203;50.754;6.978;2023-10-08T11:21:20;19.27;;;8.93;;
39524;SDS011;25203;50.754;6.978;2023-10-08T11:23:31;22.88;;;10.20;;
39524;SDS011;25203;50.754;6.978;2023-10-08T11:25:35;22.70;;;9.70;;
39524;SDS011;25203;50.754;6.978;2023-10-08T11:27:36;23.02;;;9.90;;
39524;SDS011;25203;50.754;6.978;2023-10-08T11:29:38;19.05;;;9.50;;
39524;SDS011;25203;50.754;6.978;2023-10-08T11:31:40;15.02;;;7.35;;
39524;SDS011;25203;50.754;6.978;2023-10-08T11:33:43;21.75;;;9.75;;
39524;SDS011;25203;50.754;6.978;2023-10-08T11:38:06;19.88;;;8.82;;
39524;SDS011;25203;50.754;6.978;2023-10-08T11:40:24;22.35;;;9.65;;
39524;SDS011;25203;50.754;6.978;2023-10-08T11:42:28;19.90;;;9.93;;
39524;SDS011;25203;50.754;6.978;2023-10-08T11:44:33;19.95;;;9.30;;
39524;SDS011;25203;50.754;6.978;2023-10-08T11:46:36;19.90;;;8.30;;
39524;SDS011;25203;50.754;6.978;2023-10-08T11:48:40;21.65;;;9.05;;
39524;SDS011;25203;50.754;6.978;2023-10-08T11:50:46;20.42;;;9.27;;
39524;SDS011;25203;50.754;6.978;2023-10-08T11:52:47;20.85;;;10.43;;
39524;SDS011;25203;50.754;6.978;2023-10-08T11:54:49;21.17;;;9.18;;
39524;SDS011;25203;50.754;6.978;2023-10-08T11:56:52;22.35;;;8.80;;
39524;SDS011;25203;50.754;6.978;2023-10-08T11:58:55;24.95;;;9.52;;
39524;SDS011;25203;50.754;6.978;2023-10-08T12:00:57;17.13;;;8.52;;
39524;SDS011;25203;50.754;6.978;2023-10-08T12:03:03;22.48;;;9.13;;
39524;SDS011;25203;50.754;6.978;2023-10-08T12:05:05;17.48;;;7.35;;
39524;SDS011;25203;50.754;6.978;2023-10-08T12:07:06;18.02;;;7.93;;
39524;SDS011;25203;50.754;6.978;2023-10-08T12:09:07;23.40;;;8.88;;
39524;SDS011;25203;50.754;6.978;2023-10-08T12:11:15;20.67;;;9.93;;
39524;SDS011;25203;50.754;6.978;2023-10-08T12:13:15;18.83;;;9.50;;
39524;SDS011;25203;50.754;6.978;2023-10-08T12:15:16;22.85;;;9.57;;
39524;SDS011;25203;50.754;6.978;2023-10-08T12:17:19;20.33;;;9.60;;
39524;SDS011;25203;50.754;6.978;2023-10-08T12:19:20;19.08;;;9.20;;
39524;SDS011;25203;50.754;6.978;2023-10-08T12:21:22;22.95;;;9.68;;
39524;SDS011;25203;50.754;6.978;2023-10-08T12:23:24;23.23;;;9.57;;
39524;SDS011;25203;50.754;6.978;2023-10-08T12:25:25;17.25;;;8.73;;
39524;SDS011;25203;50.754;6.978;2023-10-08T12:27:25;21.92;;;9.95;;
39524;SDS011;25203;50.754;6.978;2023-10-08T12:29:26;18.95;;;9.90;;
39524;SDS011;25203;50.754;6.978;2023-10-08T12:31:28;18.58;;;9.43;;
39524;SDS011;25203;50.754;6.978;2023-10-08T12:33:29;14.65;;;7.88;;
39524;SDS011;25203;50.754;6.978;2023-10-08T12:35:31;28.33;;;11.73;;
39524;SDS011;25203;50.754;6.978;2023-10-08T12:37:32;18.58;;;8.80;;